Impacts METAR Board
IDs:

KT74 - Taylor Muni, TX, US

Updated at: 0400 UTC 18 Jan 2022
Potential Impact None Slight Moderate High
Time 17/16Z 17/17Z 17/18Z 17/19Z 17/20Z 17/21Z 17/22Z 17/23Z 18/00Z 18/01Z 18/02Z 18/03Z 18/04Z
Temp48 54 59 63 65 66 67 66 59 52 51 46 48
Dewpt29 29 29 25 24 24 26 24 27 27 26 26 26
Altim30.19 30.20 30.18 30.13 30.10 30.08 30.07 30.06 30.05 30.06 30.06 30.07 30.07
VIS10 10 10 10 10 10 10 10 10 10 10 10 10
CIG-- -- -- -- -- -- -- -- -- -- -- -- --
CoverCLRCLRCLRCLRCLRCLRCLRCLRCLRCLRCLRCLRCLR
FltCatVFRVFRVFRVFRVFRVFRVFRVFRVFRVFRVFRVFRVFR
WX--------------------------
WDir110120100170170140150140140160160170
WSpd 7 7 8 6 5 6 8 5 4 5 3 7
WGst-- -- -- -- -- -- -- -- -- -- -- -- --
Raw hourly METARs
KT74 171555Z AUTO 10SM CLR 09/M02 A3019 RMK AO2 T00881015
KT74 171655Z AUTO 11007KT 10SM CLR 12/M02 A3020 RMK AO2 T01241017
KT74 171755Z AUTO 12007KT 10SM CLR 15/M01 A3018 RMK AO2 T01521015 10153 21033
KT74 171855Z AUTO 10008KT 10SM CLR 17/M04 A3013 RMK AO2 T01711038
KT74 171955Z AUTO 17006KT 10SM CLR 19/M04 A3010 RMK AO2 T01861044
KT74 172055Z AUTO 17005KT 10SM CLR 19/M05 A3008 RMK AO2 T01881047
KT74 172155Z AUTO 14006KT 10SM CLR 19/M03 A3007 RMK AO2 T01941032
KT74 172255Z AUTO 15008KT 10SM CLR 19/M05 A3006 RMK AO2 T01871047
KT74 172355Z AUTO 14005KT 10SM CLR 15/M03 A3005 RMK AO2 T01501027 10197 20147 401971033
KT74 180055Z AUTO 14004KT 10SM CLR 11/M03 A3006 RMK AO2 T01101026
KT74 180155Z AUTO 16005KT 10SM CLR 10/M03 A3006 RMK AO2 T01031034
KT74 180255Z AUTO 16003KT 10SM CLR 08/M03 A3007 RMK AO2 T00771032
KT74 180355Z AUTO 17007KT 10SM CLR 09/M03 A3007 RMK AO2 T00911035